РПИ Львов

Руководитель РПИ

Andriy Viter*

Инструкторы РПИ
Vladislav Savchuk (Instructor)
Входит в состав
vACC Украина

Диспетчеры РПИ

Диспетчер Рейтинг Допуски *

Аэропорты РПИ

ICAO Город Название Погода
UKLI Ивано-Франковск Ивано-Франковск UKLI 161800Z 00000MPS CAVOK M03/M06 Q1017 NOSIG
UKLL Львов Львов UKLL 161830Z 25005MPS CAVOK 01/M06 Q1016 NOSIG